createdAt,value
2016-08-13T00:00:51.990Z,0
2016-08-13T00:01:51.272Z,0
2016-08-13T00:02:51.274Z,0
2016-08-13T00:03:51.266Z,0
2016-08-13T00:04:51.272Z,0
2016-08-13T00:05:51.257Z,0
2016-08-13T00:06:51.260Z,0
2016-08-13T00:07:51.266Z,0
2016-08-13T00:08:51.275Z,0
2016-08-13T00:09:51.279Z,0
2016-08-13T00:10:51.269Z,0
2016-08-13T00:11:51.272Z,0
2016-08-13T00:12:51.984Z,0
2016-08-13T00:13:51.326Z,0
2016-08-13T00:14:51.997Z,0
2016-08-13T00:15:51.286Z,0
2016-08-13T00:16:51.296Z,0
2016-08-13T00:17:51.275Z,0
2016-08-13T00:18:51.284Z,0
2016-08-13T00:19:51.275Z,0
2016-08-13T00:20:51.286Z,0
2016-08-13T00:21:51.281Z,0
2016-08-13T00:22:51.284Z,0
2016-08-13T00:23:51.287Z,0
2016-08-13T00:24:51.289Z,0
2016-08-13T00:25:51.331Z,0
2016-08-13T00:26:51.296Z,0
2016-08-13T00:27:51.278Z,0
2016-08-13T00:28:51.289Z,0
2016-08-13T00:29:51.273Z,0
2016-08-13T00:30:51.288Z,0
2016-08-13T00:31:51.292Z,0
2016-08-13T00:32:51.292Z,0
2016-08-13T00:33:51.301Z,0
2016-08-13T00:34:51.294Z,0
2016-08-13T00:35:51.327Z,0
2016-08-13T00:36:51.294Z,0
2016-08-13T00:37:51.314Z,0
2016-08-13T00:38:52.008Z,0
2016-08-13T00:39:51.294Z,0
2016-08-13T00:40:51.295Z,0
2016-08-13T00:41:51.315Z,0
2016-08-13T00:42:51.309Z,0
2016-08-13T00:43:51.304Z,0
2016-08-13T00:44:51.333Z,0
2016-08-13T00:45:51.332Z,0
2016-08-13T00:46:51.304Z,0
2016-08-13T00:47:51.305Z,0
2016-08-13T00:48:51.315Z,0
2016-08-13T00:49:51.342Z,0
2016-08-13T00:50:51.307Z,0
2016-08-13T00:51:51.316Z,0
2016-08-13T00:52:51.344Z,0
2016-08-13T00:53:51.337Z,0
2016-08-13T00:54:51.307Z,0
2016-08-13T00:55:51.345Z,0
2016-08-13T00:56:51.338Z,0
2016-08-13T00:57:51.348Z,0
2016-08-13T00:58:51.338Z,0
2016-08-13T00:59:51.315Z,0
2016-08-13T01:00:51.312Z,0
2016-08-13T01:01:51.309Z,0
2016-08-13T01:02:52.035Z,0
2016-08-13T01:03:51.344Z,0
2016-08-13T01:04:52.035Z,0
2016-08-13T01:05:51.350Z,0
2016-08-13T01:06:51.311Z,0
2016-08-13T01:07:51.363Z,0
2016-08-13T01:08:51.328Z,0
2016-08-13T01:09:52.044Z,0
2016-08-13T01:10:51.343Z,0
2016-08-13T01:11:51.351Z,0
2016-08-13T01:12:52.067Z,0
2016-08-13T01:13:51.332Z,0
2016-08-13T01:14:51.358Z,0
2016-08-13T01:15:51.320Z,0
2016-08-13T01:16:51.351Z,0
2016-08-13T01:17:51.384Z,0
2016-08-13T01:18:51.388Z,0
2016-08-13T01:19:51.351Z,0
2016-08-13T01:20:51.350Z,0
2016-08-13T01:21:51.354Z,0
2016-08-13T01:22:51.361Z,0
2016-08-13T01:23:51.355Z,0
2016-08-13T01:24:51.354Z,0
2016-08-13T01:25:51.377Z,0
2016-08-13T01:26:51.353Z,0
2016-08-13T01:27:52.064Z,0
2016-08-13T01:28:51.357Z,0
2016-08-13T01:29:51.360Z,0
2016-08-13T01:30:51.356Z,0
2016-08-13T01:31:51.366Z,0
2016-08-13T01:32:51.364Z,0
2016-08-13T01:33:51.357Z,0
2016-08-13T01:34:51.366Z,0
2016-08-13T01:35:51.359Z,0
2016-08-13T01:36:51.358Z,0
2016-08-13T01:37:51.367Z,0
2016-08-13T01:38:51.366Z,0
2016-08-13T01:39:51.379Z,0
2016-08-13T01:40:52.076Z,0
2016-08-13T01:41:51.363Z,0
2016-08-13T01:42:51.374Z,0
2016-08-13T01:43:51.367Z,0
2016-08-13T01:44:51.363Z,0
2016-08-13T01:45:51.369Z,0
2016-08-13T01:46:51.366Z,0
2016-08-13T01:47:51.390Z,0
2016-08-13T01:48:52.099Z,0
2016-08-13T01:49:51.369Z,0
2016-08-13T01:50:51.374Z,0
2016-08-13T01:51:51.369Z,0
2016-08-13T01:52:51.391Z,0
2016-08-13T01:53:51.371Z,0
2016-08-13T01:54:51.377Z,0
2016-08-13T01:55:51.375Z,0
2016-08-13T01:56:52.080Z,0
2016-08-13T01:57:51.377Z,0
2016-08-13T01:58:51.370Z,0
2016-08-13T01:59:51.390Z,0
2016-08-13T02:00:51.375Z,0
2016-08-13T02:01:51.383Z,0
2016-08-13T02:02:51.374Z,0
2016-08-13T02:03:51.384Z,0
2016-08-13T02:04:51.379Z,0
2016-08-13T02:05:52.099Z,0
2016-08-13T02:06:51.393Z,0
2016-08-13T02:07:51.390Z,0
2016-08-13T02:08:51.390Z,0
2016-08-13T02:09:51.391Z,0
2016-08-13T02:10:52.083Z,0
2016-08-13T02:11:51.377Z,0
2016-08-13T02:12:51.389Z,0
2016-08-13T02:13:51.387Z,0
2016-08-13T02:14:51.386Z,0
2016-08-13T02:15:51.393Z,0
2016-08-13T02:16:51.384Z,0
2016-08-13T02:17:51.394Z,0
2016-08-13T02:18:51.399Z,0
2016-08-13T02:19:51.404Z,0
2016-08-13T02:20:51.443Z,0
2016-08-13T02:21:51.396Z,0
2016-08-13T02:22:51.400Z,0
2016-08-13T02:23:51.393Z,0
2016-08-13T02:24:51.399Z,0
2016-08-13T02:25:51.391Z,0
2016-08-13T02:26:51.412Z,0
2016-08-13T02:27:51.405Z,0
2016-08-13T02:28:51.394Z,0
2016-08-13T02:29:51.398Z,0
2016-08-13T02:30:51.404Z,0
2016-08-13T02:31:51.398Z,0
2016-08-13T02:32:51.421Z,0
2016-08-13T02:33:51.407Z,0
2016-08-13T02:34:51.394Z,0
2016-08-13T02:35:52.109Z,0
2016-08-13T02:36:51.406Z,0
2016-08-13T02:37:51.406Z,0
2016-08-13T02:38:51.397Z,0
2016-08-13T02:39:51.410Z,0
2016-08-13T02:40:51.425Z,0
2016-08-13T02:41:51.409Z,0
2016-08-13T02:42:51.408Z,0
2016-08-13T02:43:51.399Z,0
2016-08-13T02:44:51.416Z,0
2016-08-13T02:45:51.408Z,0
2016-08-13T02:46:51.414Z,0
2016-08-13T02:47:51.398Z,0
2016-08-13T02:48:51.408Z,0
2016-08-13T02:49:51.410Z,0
2016-08-13T02:50:52.138Z,0
2016-08-13T02:51:51.433Z,0
2016-08-13T02:52:51.399Z,0
2016-08-13T02:53:51.410Z,0
2016-08-13T02:54:51.417Z,0
2016-08-13T02:55:51.410Z,0
2016-08-13T02:56:51.410Z,0
2016-08-13T02:57:51.413Z,0
2016-08-13T02:58:51.436Z,0
2016-08-13T02:59:51.409Z,0
2016-08-13T03:00:51.410Z,0
2016-08-13T03:01:51.437Z,0
2016-08-13T03:02:51.411Z,0
2016-08-13T03:03:51.451Z,0
2016-08-13T03:04:51.419Z,0
2016-08-13T03:05:51.426Z,0
2016-08-13T03:06:51.441Z,0
2016-08-13T03:07:51.439Z,0
2016-08-13T03:08:52.153Z,0
2016-08-13T03:09:51.415Z,0
2016-08-13T03:10:51.418Z,0
2016-08-13T03:11:51.424Z,0
2016-08-13T03:12:52.141Z,0
2016-08-13T03:13:51.425Z,0
2016-08-13T03:14:51.444Z,0
2016-08-13T03:15:51.425Z,0
2016-08-13T03:16:51.450Z,0
2016-08-13T03:17:51.445Z,0
2016-08-13T03:18:51.426Z,0
2016-08-13T03:19:51.417Z,0
2016-08-13T03:20:51.434Z,0
2016-08-13T03:21:51.449Z,0
2016-08-13T03:22:51.429Z,0
2016-08-13T03:23:51.421Z,0
2016-08-13T03:24:51.415Z,0
2016-08-13T03:25:51.433Z,0
2016-08-13T03:26:51.437Z,0
2016-08-13T03:27:51.454Z,0
2016-08-13T03:28:51.450Z,0
2016-08-13T03:29:51.432Z,0
2016-08-13T03:30:51.436Z,0
2016-08-13T03:31:51.428Z,0
2016-08-13T03:32:51.459Z,0
2016-08-13T03:33:51.440Z,0
2016-08-13T03:34:52.149Z,0
2016-08-13T03:35:51.432Z,0
2016-08-13T03:36:51.436Z,0
2016-08-13T03:37:51.440Z,0
2016-08-13T03:38:52.143Z,0
2016-08-13T03:39:51.435Z,0
2016-08-13T03:40:51.439Z,0
2016-08-13T03:41:51.428Z,0
2016-08-13T03:42:51.439Z,0
2016-08-13T03:43:51.433Z,0
2016-08-13T03:44:52.149Z,0
2016-08-13T03:45:51.434Z,0
2016-08-13T03:46:51.427Z,0
2016-08-13T03:47:51.460Z,0
2016-08-13T03:48:51.443Z,0
2016-08-13T03:49:51.446Z,0
2016-08-13T03:50:51.463Z,0
2016-08-13T03:51:51.445Z,0
2016-08-13T03:52:51.467Z,0
2016-08-13T03:53:51.438Z,0
2016-08-13T03:54:51.447Z,0
2016-08-13T03:55:51.450Z,0
2016-08-13T03:56:51.445Z,0
2016-08-13T03:57:51.440Z,0
2016-08-13T03:58:51.453Z,0
2016-08-13T03:59:51.468Z,0
2016-08-13T04:00:51.448Z,0
2016-08-13T04:01:51.444Z,0
2016-08-13T04:02:51.439Z,0
2016-08-13T04:03:51.456Z,0
2016-08-13T04:04:51.472Z,0
2016-08-13T04:05:51.455Z,0
2016-08-13T04:06:51.471Z,5
2016-08-13T04:07:51.452Z,5
2016-08-13T04:08:51.451Z,5
2016-08-13T04:09:51.478Z,5
2016-08-13T04:10:51.450Z,5
2016-08-13T04:11:52.172Z,5
2016-08-13T04:12:52.169Z,5
2016-08-13T04:13:51.459Z,5
2016-08-13T04:14:52.171Z,10
2016-08-13T04:15:52.177Z,10
2016-08-13T04:16:51.468Z,10
2016-08-13T04:17:52.187Z,10
2016-08-13T04:18:51.451Z,10
2016-08-13T04:19:51.451Z,15
2016-08-13T04:20:51.453Z,15
2016-08-13T04:21:51.464Z,15
2016-08-13T04:22:51.467Z,15
2016-08-13T04:23:51.450Z,20
2016-08-13T04:24:51.450Z,20
2016-08-13T04:25:51.456Z,20
2016-08-13T04:26:51.471Z,20
2016-08-13T04:27:51.467Z,25
2016-08-13T04:28:52.191Z,25
2016-08-13T04:29:51.498Z,25
2016-08-13T04:30:51.466Z,25
2016-08-13T04:31:51.486Z,30
2016-08-13T04:32:51.471Z,30
2016-08-13T04:33:52.881Z,30
2016-08-13T04:34:51.487Z,35
2016-08-13T04:35:52.187Z,35
2016-08-13T04:36:52.182Z,35
2016-08-13T04:37:51.492Z,40
2016-08-13T04:38:51.473Z,40
2016-08-13T04:39:52.195Z,40
2016-08-13T04:40:51.471Z,45
2016-08-13T04:41:51.492Z,55
2016-08-13T04:42:52.180Z,65
2016-08-13T04:43:51.478Z,80
2016-08-13T04:44:51.478Z,85
2016-08-13T04:45:51.478Z,90
2016-08-13T04:46:51.474Z,100
2016-08-13T04:47:51.482Z,105
2016-08-13T04:48:51.476Z,110
2016-08-13T04:49:51.473Z,110
2016-08-13T04:50:51.509Z,120
2016-08-13T04:51:52.215Z,115
2016-08-13T04:52:51.501Z,120
2016-08-13T04:53:51.496Z,125
2016-08-13T04:54:51.498Z,130
2016-08-13T04:55:51.479Z,135
2016-08-13T04:56:51.500Z,140
2016-08-13T04:57:51.487Z,145
2016-08-13T04:58:51.513Z,150
2016-08-13T04:59:51.508Z,155
2016-08-13T05:00:51.520Z,155
2016-08-13T05:01:51.513Z,165
2016-08-13T05:02:51.491Z,160
2016-08-13T05:03:52.227Z,165
2016-08-13T05:04:51.502Z,170
2016-08-13T05:05:51.589Z,175
2016-08-13T05:06:51.507Z,175
2016-08-13T05:07:51.504Z,180
2016-08-13T05:08:51.533Z,185
2016-08-13T05:09:51.515Z,185
2016-08-13T05:10:51.531Z,190
2016-08-13T05:11:52.237Z,195
2016-08-13T05:12:51.513Z,200
2016-08-13T05:13:51.540Z,185
2016-08-13T05:14:51.538Z,170
2016-08-13T05:15:51.526Z,220
2016-08-13T05:16:51.529Z,215
2016-08-13T05:17:51.541Z,220
2016-08-13T05:18:51.548Z,220
2016-08-13T05:19:51.548Z,225
2016-08-13T05:20:52.253Z,225
2016-08-13T05:21:51.561Z,225
2016-08-13T05:22:51.554Z,230
2016-08-13T05:23:51.547Z,215
2016-08-13T05:24:51.592Z,230
2016-08-13T05:25:51.557Z,225
2016-08-13T05:26:51.603Z,230
2016-08-13T05:27:51.572Z,230
2016-08-13T05:28:52.307Z,230
2016-08-13T05:29:51.584Z,230
2016-08-13T05:30:51.592Z,235
2016-08-13T05:31:51.593Z,235
2016-08-13T05:32:51.592Z,235
2016-08-13T05:33:51.589Z,230
2016-08-13T05:34:52.298Z,235
2016-08-13T05:35:51.594Z,225
2016-08-13T05:36:51.629Z,120
2016-08-13T05:37:51.614Z,175
2016-08-13T05:38:51.616Z,140
2016-08-13T05:39:52.329Z,140
2016-08-13T05:40:51.636Z,135
2016-08-13T05:41:51.623Z,135
2016-08-13T05:42:51.620Z,140
2016-08-13T05:43:51.627Z,135
2016-08-13T05:44:51.632Z,135
2016-08-13T05:45:51.637Z,135
2016-08-13T05:46:51.636Z,135
2016-08-13T05:47:51.637Z,135
2016-08-13T05:48:51.640Z,140
2016-08-13T05:49:51.657Z,140
2016-08-13T05:50:51.651Z,190
2016-08-13T05:51:51.664Z,180
2016-08-13T05:52:51.663Z,210
2016-08-13T05:53:51.658Z,240
2016-08-13T05:54:51.672Z,250
2016-08-13T05:55:51.662Z,260
2016-08-13T05:56:51.667Z,270
2016-08-13T05:57:51.681Z,280
2016-08-13T05:58:51.670Z,285
2016-08-13T05:59:51.680Z,290
2016-08-13T06:00:51.690Z,295
2016-08-13T06:01:51.693Z,300
2016-08-13T06:02:51.689Z,300
2016-08-13T06:03:51.705Z,295
2016-08-13T06:04:51.698Z,290
2016-08-13T06:05:51.700Z,290
2016-08-13T06:06:51.712Z,295
2016-08-13T06:07:51.716Z,295
2016-08-13T06:08:51.731Z,295
2016-08-13T06:09:51.715Z,295
2016-08-13T06:10:51.717Z,295
2016-08-13T06:11:51.716Z,295
2016-08-13T06:12:51.725Z,295
2016-08-13T06:13:52.440Z,295
2016-08-13T06:14:51.743Z,295
2016-08-13T06:15:51.754Z,295
2016-08-13T06:16:51.746Z,295
2016-08-13T06:17:51.781Z,295
2016-08-13T06:18:51.753Z,295
2016-08-13T06:19:51.814Z,295
2016-08-13T06:20:51.769Z,295
2016-08-13T06:21:51.815Z,295
2016-08-13T06:22:51.781Z,300
2016-08-13T06:23:51.784Z,300
2016-08-13T06:24:53.209Z,295
2016-08-13T06:25:51.795Z,295
2016-08-13T06:26:51.818Z,295
2016-08-13T06:27:51.816Z,300
2016-08-13T06:28:51.819Z,305
2016-08-13T06:29:51.818Z,300
2016-08-13T06:30:51.839Z,300
2016-08-13T06:31:51.833Z,300
2016-08-13T06:32:51.865Z,305
2016-08-13T06:33:51.851Z,305
2016-08-13T06:34:51.858Z,305
2016-08-13T06:35:51.870Z,305
2016-08-13T06:36:51.864Z,305
2016-08-13T06:37:51.872Z,310
2016-08-13T06:38:51.886Z,310
2016-08-13T06:39:51.883Z,310
2016-08-13T06:40:51.896Z,310
2016-08-13T06:41:51.900Z,315
2016-08-13T06:42:51.910Z,315
2016-08-13T06:43:51.915Z,315
2016-08-13T06:44:51.920Z,315
2016-08-13T06:45:52.645Z,315
2016-08-13T06:46:51.930Z,315
2016-08-13T06:47:52.653Z,315
2016-08-13T06:48:51.942Z,320
2016-08-13T06:49:51.946Z,320
2016-08-13T06:50:51.965Z,320
2016-08-13T06:51:51.960Z,320
2016-08-13T06:52:51.970Z,325
2016-08-13T06:53:51.968Z,320
2016-08-13T06:54:51.988Z,320
2016-08-13T06:55:52.010Z,320
2016-08-13T06:56:51.993Z,320
2016-08-13T06:57:52.010Z,320
2016-08-13T06:58:52.021Z,320
2016-08-13T06:59:52.015Z,320
2016-08-13T07:00:52.030Z,320
2016-08-13T07:01:52.034Z,320
2016-08-13T07:02:52.040Z,320
2016-08-13T07:03:52.053Z,320
2016-08-13T07:04:52.052Z,325
2016-08-13T07:05:52.068Z,320
2016-08-13T07:06:52.076Z,320
2016-08-13T07:07:52.076Z,320
2016-08-13T07:08:52.092Z,320
2016-08-13T07:09:52.092Z,315
2016-08-13T07:10:52.812Z,315
2016-08-13T07:11:52.095Z,320
2016-08-13T07:12:52.113Z,320
2016-08-13T07:13:52.125Z,320
2016-08-13T07:14:52.134Z,325
2016-08-13T07:15:52.846Z,320
2016-08-13T07:16:52.847Z,320
2016-08-13T07:17:52.145Z,325
2016-08-13T07:18:52.148Z,320
2016-08-13T07:19:52.188Z,320
2016-08-13T07:20:52.886Z,320
2016-08-13T07:21:52.180Z,315
2016-08-13T07:22:52.890Z,315
2016-08-13T07:23:52.189Z,315
2016-08-13T07:24:52.907Z,310
2016-08-13T07:25:52.933Z,310
2016-08-13T07:26:52.228Z,300
2016-08-13T07:27:52.222Z,295
2016-08-13T07:28:52.240Z,295
2016-08-13T07:29:52.238Z,295
2016-08-13T07:30:52.270Z,290
2016-08-13T07:31:52.261Z,270
2016-08-13T07:32:53.000Z,260
2016-08-13T07:33:52.291Z,265
2016-08-13T07:34:52.277Z,275
2016-08-13T07:35:52.284Z,270
2016-08-13T07:36:52.300Z,280
2016-08-13T07:37:52.306Z,290
2016-08-13T07:38:52.322Z,290
2016-08-13T07:39:52.342Z,295
2016-08-13T07:40:52.330Z,305
2016-08-13T07:41:52.342Z,305
2016-08-13T07:42:52.357Z,300
2016-08-13T07:43:52.364Z,280
2016-08-13T07:44:52.371Z,270
2016-08-13T07:45:52.375Z,265
2016-08-13T07:46:52.368Z,270
2016-08-13T07:47:52.413Z,275
2016-08-13T07:48:53.808Z,265
2016-08-13T07:49:52.396Z,245
2016-08-13T07:50:52.395Z,250
2016-08-13T07:51:52.417Z,265
2016-08-13T07:52:52.415Z,275
2016-08-13T07:53:52.434Z,290
2016-08-13T07:54:52.438Z,295
2016-08-13T07:55:52.434Z,295
2016-08-13T07:56:52.447Z,290
2016-08-13T07:57:52.450Z,295
2016-08-13T07:58:52.461Z,295
2016-08-13T07:59:52.454Z,295
2016-08-13T08:00:52.463Z,300
2016-08-13T08:01:52.492Z,300
2016-08-13T08:02:52.494Z,300
2016-08-13T08:03:53.206Z,300
2016-08-13T08:04:52.497Z,300
2016-08-13T08:05:52.511Z,295
2016-08-13T08:06:52.506Z,295
2016-08-13T08:07:53.224Z,300
2016-08-13T08:08:52.527Z,300
2016-08-13T08:09:52.537Z,300
2016-08-13T08:10:52.545Z,300
2016-08-13T08:11:52.560Z,295
2016-08-13T08:12:52.561Z,300
2016-08-13T08:13:52.571Z,295
2016-08-13T08:14:54.000Z,295
2016-08-13T08:15:52.578Z,290
2016-08-13T08:16:52.590Z,290
2016-08-13T08:17:52.603Z,290
2016-08-13T08:18:52.601Z,290
2016-08-13T08:19:52.630Z,290
2016-08-13T08:20:52.639Z,285
2016-08-13T08:21:52.637Z,285
2016-08-13T08:22:52.673Z,285
2016-08-13T08:23:52.662Z,280
2016-08-13T08:24:52.654Z,280
2016-08-13T08:25:52.659Z,280
2016-08-13T08:26:52.674Z,280
2016-08-13T08:27:52.691Z,280
2016-08-13T08:28:52.707Z,275
2016-08-13T08:29:52.704Z,275
2016-08-13T08:30:52.722Z,275
2016-08-13T08:31:52.734Z,275
2016-08-13T08:32:52.730Z,275
2016-08-13T08:33:52.747Z,275
2016-08-13T08:34:52.749Z,270
2016-08-13T08:35:53.471Z,270
2016-08-13T08:36:52.758Z,270
2016-08-13T08:37:52.793Z,265
2016-08-13T08:38:52.790Z,265
2016-08-13T08:39:52.782Z,260
2016-08-13T08:40:52.798Z,260
2016-08-13T08:41:52.807Z,260
2016-08-13T08:42:52.816Z,260
2016-08-13T08:43:52.820Z,260
2016-08-13T08:44:52.843Z,260
2016-08-13T08:45:52.858Z,260
2016-08-13T08:46:52.861Z,260
2016-08-13T08:47:52.863Z,260
2016-08-13T08:48:52.868Z,260
2016-08-13T08:49:52.869Z,260
2016-08-13T08:50:52.876Z,260
2016-08-13T08:51:52.887Z,260
2016-08-13T08:52:52.890Z,255
2016-08-13T08:53:52.917Z,250
2016-08-13T08:54:52.915Z,245
2016-08-13T08:55:52.929Z,240
2016-08-13T08:56:52.935Z,240
2016-08-13T08:57:52.928Z,235
2016-08-13T08:58:52.938Z,235
2016-08-13T08:59:53.673Z,235
2016-08-13T09:00:52.989Z,230
2016-08-13T09:01:52.961Z,230
2016-08-13T09:02:52.980Z,230
2016-08-13T09:03:52.982Z,230
2016-08-13T09:04:52.987Z,230
2016-08-13T09:05:53.740Z,230
2016-08-13T09:06:53.734Z,230
2016-08-13T09:07:53.729Z,230
2016-08-13T09:08:53.015Z,230
2016-08-13T09:09:53.021Z,230
2016-08-13T09:10:53.743Z,230
2016-08-13T09:11:53.034Z,225
2016-08-13T09:12:53.031Z,225
2016-08-13T09:13:53.063Z,225
2016-08-13T09:14:53.051Z,225
2016-08-13T09:15:53.062Z,225
2016-08-13T09:16:53.064Z,225
2016-08-13T09:17:53.778Z,225
2016-08-13T09:18:53.064Z,225
2016-08-13T09:19:53.071Z,225
2016-08-13T09:20:53.090Z,220
2016-08-13T09:21:53.091Z,225
2016-08-13T09:22:53.810Z,220
2016-08-13T09:23:53.853Z,220
2016-08-13T09:24:53.129Z,220
2016-08-13T09:25:53.105Z,220
2016-08-13T09:26:53.126Z,220
2016-08-13T09:27:53.135Z,220
2016-08-13T09:28:53.131Z,215
2016-08-13T09:29:53.131Z,215
2016-08-13T09:30:53.141Z,215
2016-08-13T09:31:53.148Z,215
2016-08-13T09:32:53.142Z,220
2016-08-13T09:33:53.151Z,215
2016-08-13T09:34:53.167Z,210
2016-08-13T09:35:53.159Z,210
2016-08-13T09:36:53.162Z,210
2016-08-13T09:37:53.171Z,210
2016-08-13T09:38:53.177Z,210
2016-08-13T09:39:53.187Z,210
2016-08-13T09:40:53.182Z,210
2016-08-13T09:41:53.194Z,210
2016-08-13T09:42:53.213Z,210
2016-08-13T09:43:53.224Z,210
2016-08-13T09:44:53.218Z,210
2016-08-13T09:45:53.225Z,210
2016-08-13T09:46:53.220Z,210
2016-08-13T09:47:53.216Z,215
2016-08-13T09:48:53.237Z,210
2016-08-13T09:49:53.236Z,205
2016-08-13T09:50:53.234Z,165
2016-08-13T09:51:53.246Z,220
2016-08-13T09:52:53.261Z,205
2016-08-13T09:53:53.268Z,165
2016-08-13T09:54:53.261Z,200
2016-08-13T09:55:53.279Z,215
2016-08-13T09:56:53.268Z,165
2016-08-13T09:57:53.289Z,150
2016-08-13T09:58:53.288Z,205
2016-08-13T09:59:54.018Z,185
2016-08-13T10:00:53.302Z,220
2016-08-13T10:01:53.299Z,225
2016-08-13T10:02:54.040Z,225
2016-08-13T10:03:53.305Z,225
2016-08-13T10:04:53.301Z,235
2016-08-13T10:05:53.328Z,235
2016-08-13T10:06:53.323Z,230
2016-08-13T10:07:53.336Z,230
2016-08-13T10:08:53.325Z,225
2016-08-13T10:09:53.345Z,225
2016-08-13T10:10:53.333Z,225
2016-08-13T10:11:53.354Z,230
2016-08-13T10:12:54.071Z,225
2016-08-13T10:13:53.362Z,230
2016-08-13T10:14:53.369Z,230
2016-08-13T10:15:54.090Z,225
2016-08-13T10:16:53.364Z,190
2016-08-13T10:17:53.367Z,220
2016-08-13T10:18:54.099Z,225
2016-08-13T10:19:53.379Z,190
2016-08-13T10:20:53.395Z,170
2016-08-13T10:21:54.125Z,230
2016-08-13T10:22:53.437Z,225
2016-08-13T10:23:53.426Z,230
2016-08-13T10:24:53.421Z,235
2016-08-13T10:25:53.420Z,230
2016-08-13T10:26:53.441Z,235
2016-08-13T10:27:53.440Z,185
2016-08-13T10:28:53.447Z,210
2016-08-13T10:29:53.448Z,200
2016-08-13T10:30:53.444Z,180
2016-08-13T10:31:54.154Z,180
2016-08-13T10:32:54.186Z,180
2016-08-13T10:33:53.465Z,215
2016-08-13T10:34:53.461Z,205
2016-08-13T10:35:53.479Z,225
2016-08-13T10:36:53.468Z,200
2016-08-13T10:37:53.482Z,195
2016-08-13T10:38:53.482Z,180
2016-08-13T10:39:53.523Z,180
2016-08-13T10:40:53.541Z,240
2016-08-13T10:41:53.540Z,235
2016-08-13T10:42:54.219Z,235
2016-08-13T10:43:53.572Z,235
2016-08-13T10:44:53.576Z,235
2016-08-13T10:45:54.262Z,235
2016-08-13T10:46:53.525Z,240
2016-08-13T10:47:53.534Z,245
2016-08-13T10:48:53.539Z,240
2016-08-13T10:49:53.551Z,235
2016-08-13T10:50:53.619Z,235
2016-08-13T10:51:53.563Z,225
2016-08-13T10:52:53.578Z,225
2016-08-13T10:53:53.606Z,225
2016-08-13T10:54:53.590Z,225
2016-08-13T10:55:53.593Z,220
2016-08-13T10:56:53.603Z,220
2016-08-13T10:57:53.595Z,220
2016-08-13T10:58:53.594Z,220
2016-08-13T10:59:53.605Z,220
2016-08-13T11:00:53.607Z,170
2016-08-13T11:01:53.615Z,165
2016-08-13T11:02:54.330Z,215
2016-08-13T11:03:53.655Z,215
2016-08-13T11:04:53.627Z,240
2016-08-13T11:05:53.629Z,240
2016-08-13T11:06:53.633Z,235
2016-08-13T11:07:53.656Z,230
2016-08-13T11:08:53.659Z,230
2016-08-13T11:09:53.656Z,225
2016-08-13T11:10:53.672Z,235
2016-08-13T11:11:53.681Z,225
2016-08-13T11:12:53.688Z,225
2016-08-13T11:13:53.680Z,240
2016-08-13T11:14:54.397Z,245
2016-08-13T11:15:54.400Z,240
2016-08-13T11:16:53.697Z,235
2016-08-13T11:17:53.697Z,205
2016-08-13T11:18:53.717Z,240
2016-08-13T11:19:53.732Z,240
2016-08-13T11:20:53.778Z,190
2016-08-13T11:21:53.786Z,245
2016-08-13T11:22:54.435Z,245
2016-08-13T11:23:53.734Z,245
2016-08-13T11:24:54.450Z,245
2016-08-13T11:25:53.759Z,215
2016-08-13T11:26:53.757Z,195
2016-08-13T11:27:53.770Z,195
2016-08-13T11:28:53.768Z,205
2016-08-13T11:29:53.764Z,195
2016-08-13T11:30:53.784Z,185
2016-08-13T11:31:53.803Z,185
2016-08-13T11:32:53.810Z,205
2016-08-13T11:33:53.802Z,205
2016-08-13T11:34:54.515Z,180
2016-08-13T11:35:53.819Z,180
2016-08-13T11:36:53.808Z,185
2016-08-13T11:37:53.822Z,215
2016-08-13T11:38:53.832Z,190
2016-08-13T11:39:53.825Z,190
2016-08-13T11:40:53.840Z,200
2016-08-13T11:41:53.846Z,205
2016-08-13T11:42:53.852Z,260
2016-08-13T11:43:53.857Z,230
2016-08-13T11:44:53.870Z,245
2016-08-13T11:45:53.871Z,250
2016-08-13T11:46:53.871Z,285
2016-08-13T11:47:54.589Z,290
2016-08-13T11:48:53.879Z,290
2016-08-13T11:49:53.880Z,295
2016-08-13T11:50:53.887Z,285
2016-08-13T11:51:53.902Z,270
2016-08-13T11:52:53.905Z,260
2016-08-13T11:53:53.915Z,255
2016-08-13T11:54:53.924Z,255
2016-08-13T11:55:53.916Z,255
2016-08-13T11:56:53.923Z,255
2016-08-13T11:57:54.670Z,245
2016-08-13T11:58:54.000Z,225
2016-08-13T11:59:54.067Z,250
2016-08-13T12:00:53.967Z,240
2016-08-13T12:01:53.949Z,275
2016-08-13T12:02:53.957Z,275
2016-08-13T12:03:53.960Z,270
2016-08-13T12:04:54.688Z,270
2016-08-13T12:05:54.698Z,275
2016-08-13T12:06:54.036Z,265
2016-08-13T12:07:54.021Z,260
2016-08-13T12:08:54.022Z,260
2016-08-13T12:09:54.007Z,265
2016-08-13T12:10:54.028Z,260
2016-08-13T12:11:54.027Z,250
2016-08-13T12:12:54.026Z,235
2016-08-13T12:13:54.068Z,250
2016-08-13T12:14:54.025Z,235
2016-08-13T12:15:54.797Z,245
2016-08-13T12:16:54.103Z,230
2016-08-13T12:17:54.768Z,245
2016-08-13T12:18:54.073Z,245
2016-08-13T12:19:54.097Z,240
2016-08-13T12:20:54.775Z,200
2016-08-13T12:21:54.116Z,200
2016-08-13T12:22:54.105Z,230
2016-08-13T12:23:54.103Z,205
2016-08-13T12:24:54.829Z,200
2016-08-13T12:25:54.153Z,200
2016-08-13T12:27:54.135Z,240
2016-08-13T12:28:54.857Z,250
2016-08-13T12:29:54.858Z,265
2016-08-13T12:30:54.151Z,275
2016-08-13T12:31:54.151Z,265
2016-08-13T12:32:54.153Z,290
2016-08-13T12:33:54.164Z,285
2016-08-13T12:34:54.861Z,260
2016-08-13T12:35:54.270Z,215
2016-08-13T12:36:54.170Z,210
2016-08-13T12:37:54.190Z,205
2016-08-13T12:38:54.188Z,205
2016-08-13T12:39:54.891Z,200
2016-08-13T12:40:54.268Z,235
2016-08-13T12:41:54.218Z,235
2016-08-13T12:42:54.969Z,235
2016-08-13T12:43:54.234Z,240
2016-08-13T12:44:54.222Z,205
2016-08-13T12:45:54.233Z,205
2016-08-13T12:46:54.939Z,215
2016-08-13T12:47:54.238Z,240
2016-08-13T12:48:54.239Z,245
2016-08-13T12:49:54.282Z,245
2016-08-13T12:50:54.261Z,220
2016-08-13T12:51:54.256Z,200
2016-08-13T12:52:54.263Z,220
2016-08-13T12:53:54.265Z,205
2016-08-13T12:54:54.284Z,210
2016-08-13T12:55:54.310Z,190
2016-08-13T12:56:54.304Z,200
2016-08-13T12:57:54.307Z,220
2016-08-13T12:58:54.310Z,270
2016-08-13T12:59:54.312Z,275
2016-08-13T13:00:54.307Z,265
2016-08-13T13:01:54.314Z,260
2016-08-13T13:02:54.329Z,255
2016-08-13T13:03:54.327Z,260
2016-08-13T13:04:54.363Z,255
2016-08-13T13:05:54.368Z,225
2016-08-13T13:06:54.380Z,245
2016-08-13T13:07:54.366Z,230
2016-08-13T13:08:54.380Z,240
2016-08-13T13:09:54.388Z,225
2016-08-13T13:10:54.377Z,230
2016-08-13T13:11:54.405Z,200
2016-08-13T13:12:54.466Z,225
2016-08-13T13:13:55.116Z,230
2016-08-13T13:14:54.400Z,220
2016-08-13T13:15:54.439Z,220
2016-08-13T13:16:54.643Z,225
2016-08-13T13:17:54.423Z,195
2016-08-13T13:18:54.454Z,225
2016-08-13T13:19:55.167Z,240
2016-08-13T13:20:54.437Z,250
2016-08-13T13:21:54.443Z,255
2016-08-13T13:22:54.453Z,250
2016-08-13T13:23:54.451Z,255
2016-08-13T13:24:54.660Z,250
2016-08-13T13:25:54.470Z,240
2016-08-13T13:26:54.463Z,245
2016-08-13T13:27:54.505Z,245
2016-08-13T13:28:54.506Z,240
2016-08-13T13:29:54.508Z,235
2016-08-13T13:30:54.502Z,230
2016-08-13T13:31:54.523Z,225
2016-08-13T13:32:54.525Z,230
2016-08-13T13:33:55.225Z,230
2016-08-13T13:34:54.528Z,235
2016-08-13T13:35:54.527Z,245
2016-08-13T13:36:54.534Z,245
2016-08-13T13:37:54.546Z,235
2016-08-13T13:38:55.246Z,230
2016-08-13T13:39:54.556Z,230
2016-08-13T13:40:55.265Z,230
2016-08-13T13:41:54.559Z,215
2016-08-13T13:42:54.576Z,215
2016-08-13T13:43:54.614Z,195
2016-08-13T13:44:54.585Z,230
2016-08-13T13:45:55.319Z,225
2016-08-13T13:46:55.306Z,190
2016-08-13T13:47:54.592Z,185
2016-08-13T13:48:54.603Z,190
2016-08-13T13:49:55.331Z,185
2016-08-13T13:50:54.626Z,180
2016-08-13T13:51:54.624Z,200
2016-08-13T13:52:55.536Z,215
2016-08-13T13:53:54.651Z,215
2016-08-13T13:54:54.650Z,220
2016-08-13T13:55:54.671Z,220
2016-08-13T13:56:54.673Z,220
2016-08-13T13:57:54.674Z,215
2016-08-13T13:58:55.385Z,220
2016-08-13T13:59:55.424Z,225
2016-08-13T14:00:54.685Z,225
2016-08-13T14:01:54.700Z,225
2016-08-13T14:02:54.705Z,225
2016-08-13T14:03:54.698Z,215
2016-08-13T14:04:54.701Z,215
2016-08-13T14:05:54.730Z,200